createdAt,value
2018-10-03T00:02:09.622Z,31.50
2018-10-03T00:04:41.679Z,31.53
2018-10-03T00:07:13.611Z,33.30
2018-10-03T00:09:46.360Z,30.23
2018-10-03T00:12:18.604Z,31.23
2018-10-03T00:14:50.633Z,32.63
2018-10-03T00:17:22.736Z,30.27
2018-10-03T01:06:49.649Z,24.47
2018-10-03T01:09:21.517Z,23.20
2018-10-03T01:11:53.661Z,24.40
2018-10-03T01:14:25.761Z,21.73
2018-10-03T01:16:57.538Z,24.87
2018-10-03T01:19:29.553Z,25.17
2018-10-03T01:22:02.407Z,23.07
2018-10-03T01:24:34.339Z,25.80
2018-10-03T01:27:06.504Z,24.07
2018-10-03T01:29:38.325Z,24.07
2018-10-03T01:32:10.222Z,21.47
2018-10-03T01:34:42.346Z,25.87
2018-10-03T01:37:15.116Z,25.00
2018-10-03T01:39:47.080Z,24.17
2018-10-03T01:42:19.462Z,26.27
2018-10-03T01:44:51.093Z,22.83
2018-10-03T01:47:23.018Z,23.67
2018-10-03T01:49:55.055Z,23.03
2018-10-03T01:52:26.997Z,24.23
2018-10-03T01:54:58.769Z,22.67
2018-10-03T01:57:30.616Z,23.20
2018-10-03T02:00:02.389Z,20.27
2018-10-03T02:02:34.266Z,24.30
2018-10-03T02:05:06.034Z,34.37
2018-10-03T02:07:38.123Z,60.13
2018-10-03T02:10:10.495Z,27.17
2018-10-03T02:12:42.405Z,22.67
2018-10-03T02:15:14.203Z,22.07
2018-10-03T02:17:46.066Z,21.83
2018-10-03T02:20:18.808Z,26.07
2018-10-03T02:22:50.701Z,23.70
2018-10-03T02:25:22.916Z,24.97
2018-10-03T02:27:54.999Z,28.00
2018-10-03T02:30:27.169Z,25.63
2018-10-03T02:32:58.808Z,25.47
2018-10-03T02:35:31.005Z,24.40
2018-10-03T02:38:02.739Z,25.77
2018-10-03T02:40:34.669Z,22.80
2018-10-03T02:43:06.580Z,20.30
2018-10-03T02:45:38.301Z,22.33
2018-10-03T02:48:10.043Z,19.07
2018-10-03T02:50:42.579Z,18.13
2018-10-03T02:53:14.404Z,20.80
2018-10-03T02:55:46.328Z,23.33
2018-10-03T02:58:18.594Z,19.73
2018-10-03T03:00:50.551Z,17.50
2018-10-03T03:03:22.444Z,18.70
2018-10-03T03:05:55.572Z,19.40
2018-10-03T03:08:27.161Z,20.10
2018-10-03T03:10:59.269Z,18.00
2018-10-03T03:13:30.956Z,20.17
2018-10-03T03:16:03.019Z,22.27
2018-10-03T03:18:34.759Z,20.03
2018-10-03T03:21:06.727Z,16.47
2018-10-03T03:23:38.996Z,20.07
2018-10-03T03:26:11.776Z,18.43
2018-10-03T03:28:44.139Z,24.97
2018-10-03T03:31:16.337Z,21.83
2018-10-03T03:33:48.661Z,19.07
2018-10-03T03:36:20.991Z,18.93
2018-10-03T03:38:53.226Z,17.87
2018-10-03T03:41:25.884Z,18.43
2018-10-03T03:43:58.316Z,20.53
2018-10-03T03:46:30.569Z,18.30
2018-10-03T03:49:03.212Z,17.03
2018-10-03T03:51:35.282Z,17.57
2018-10-03T03:54:07.320Z,17.33
2018-10-03T03:56:39.469Z,20.00
2018-10-03T03:59:11.525Z,20.57
2018-10-03T04:01:43.659Z,21.27
2018-10-03T04:04:15.771Z,20.83
2018-10-03T04:06:47.854Z,18.93
2018-10-03T04:09:19.879Z,20.67
2018-10-03T04:11:52.084Z,21.47
2018-10-03T04:14:24.467Z,17.80
2018-10-03T04:16:56.705Z,19.63
2018-10-03T04:19:29.061Z,21.50
2018-10-03T04:22:01.299Z,20.83
2018-10-03T04:24:33.315Z,19.33
2018-10-03T04:27:05.105Z,19.03
2018-10-03T04:29:37.141Z,18.70
2018-10-03T04:32:09.675Z,23.90
2018-10-03T04:34:42.090Z,20.47
2018-10-03T04:37:14.107Z,21.13
2018-10-03T04:39:46.074Z,21.70
2018-10-03T04:42:18.259Z,18.30
2018-10-03T04:44:50.730Z,19.53
2018-10-03T04:47:23.740Z,18.97
2018-10-03T04:49:55.713Z,22.33
2018-10-03T04:52:27.767Z,21.80
2018-10-03T04:55:00.672Z,22.67
2018-10-03T04:57:33.268Z,20.80
2018-10-03T05:00:06.494Z,25.67
2018-10-03T05:02:38.656Z,27.13
2018-10-03T05:05:11.648Z,36.23
2018-10-03T05:07:43.925Z,28.87
2018-10-03T05:10:16.326Z,27.13
2018-10-03T05:12:48.575Z,22.03
2018-10-03T05:15:20.553Z,24.40
2018-10-03T05:17:52.781Z,21.30
2018-10-03T05:20:24.887Z,24.47
2018-10-03T05:22:57.358Z,21.63
2018-10-03T05:25:29.349Z,21.87
2018-10-03T05:28:00.909Z,18.93
2018-10-03T05:30:33.502Z,17.27
2018-10-03T05:33:05.816Z,19.10
2018-10-03T05:35:37.941Z,17.53
2018-10-03T05:38:10.176Z,17.53
2018-10-03T05:40:42.450Z,18.90
2018-10-03T05:43:14.548Z,19.83
2018-10-03T05:45:45.992Z,19.30
2018-10-03T05:48:18.080Z,17.90
2018-10-03T05:50:50.179Z,16.80
2018-10-03T05:53:22.426Z,18.93
2018-10-03T05:55:54.428Z,17.93
2018-10-03T05:58:26.565Z,18.00
2018-10-03T06:00:58.677Z,17.37
2018-10-03T06:03:30.775Z,18.00
2018-10-03T06:06:02.755Z,20.37
2018-10-03T06:08:34.778Z,17.07
2018-10-03T06:11:06.615Z,15.03
2018-10-03T06:13:39.019Z,15.40
2018-10-03T06:16:11.365Z,18.27
2018-10-03T06:18:44.094Z,15.60
2018-10-03T06:21:16.862Z,18.20
2018-10-03T06:23:49.372Z,16.40
2018-10-03T06:26:22.117Z,18.07
2018-10-03T06:28:53.879Z,19.30
2018-10-03T06:31:25.991Z,19.87
2018-10-03T06:33:58.412Z,21.27
2018-10-03T06:36:30.602Z,21.97
2018-10-03T06:39:03.073Z,22.13
2018-10-03T06:41:35.489Z,18.60
2018-10-03T06:44:07.422Z,20.07
2018-10-03T06:46:39.226Z,19.93
2018-10-03T06:49:11.435Z,18.80
2018-10-03T06:51:44.278Z,18.20
2018-10-03T06:54:16.751Z,17.10
2018-10-03T06:56:49.371Z,18.03
2018-10-03T06:59:21.673Z,16.63
2018-10-03T07:01:53.523Z,16.73
2018-10-03T07:04:25.512Z,16.50
2018-10-03T07:06:58.479Z,15.23
2018-10-03T07:09:30.939Z,16.20
2018-10-03T07:12:03.015Z,15.43
2018-10-03T07:14:36.069Z,16.77
2018-10-03T07:17:08.392Z,13.73
2018-10-03T07:19:40.471Z,15.87
2018-10-03T07:22:13.121Z,14.00
2018-10-03T07:24:45.227Z,13.07
2018-10-03T07:27:17.178Z,17.37
2018-10-03T07:29:49.157Z,13.93
2018-10-03T07:32:22.316Z,15.23
2018-10-03T07:34:54.359Z,13.50
2018-10-03T07:37:27.404Z,15.17
2018-10-03T07:39:59.346Z,12.63
2018-10-03T07:42:31.426Z,12.57
2018-10-03T07:45:04.333Z,12.73
2018-10-03T07:47:36.416Z,9.43
2018-10-03T07:50:08.874Z,10.63
2018-10-03T07:52:41.370Z,11.63
2018-10-03T07:55:13.572Z,10.67
2018-10-03T07:57:46.144Z,11.03
2018-10-03T08:00:25.673Z,12.67
2018-10-03T08:02:58.171Z,10.43
2018-10-03T08:05:30.675Z,14.07
2018-10-03T08:08:03.028Z,10.87
2018-10-03T08:10:34.839Z,9.03
2018-10-03T08:13:07.143Z,11.10
2018-10-03T08:15:39.375Z,10.87
2018-10-03T08:18:12.737Z,7.80
2018-10-03T08:20:45.237Z,8.73
2018-10-03T08:23:17.238Z,10.60
2018-10-03T08:25:49.212Z,10.97
2018-10-03T08:28:21.023Z,10.23
2018-10-03T08:30:52.574Z,9.93
2018-10-03T08:33:24.944Z,11.17
2018-10-03T08:35:56.972Z,10.77
2018-10-03T08:38:29.525Z,10.40
2018-10-03T08:41:01.660Z,8.53
2018-10-03T08:43:33.773Z,8.70
2018-10-03T08:46:06.020Z,8.70
2018-10-03T08:48:38.207Z,8.83
2018-10-03T08:51:10.411Z,7.93
2018-10-03T08:53:43.346Z,7.73
2018-10-03T08:56:16.312Z,9.80
2018-10-03T08:58:48.768Z,7.00
2018-10-03T09:01:20.842Z,8.80
2018-10-03T09:03:53.480Z,7.60
2018-10-03T09:06:25.749Z,7.33
2018-10-03T09:08:57.983Z,7.57
2018-10-03T09:11:30.199Z,7.40
2018-10-03T09:14:02.394Z,8.50
2018-10-03T09:16:34.542Z,7.40
2018-10-03T09:19:06.681Z,8.50
2018-10-03T09:21:39.238Z,6.90
2018-10-03T09:24:11.245Z,7.67
2018-10-03T09:26:45.020Z,7.90
2018-10-03T09:29:17.885Z,10.33
2018-10-03T09:31:51.598Z,10.40
2018-10-03T09:34:23.341Z,8.37
2018-10-03T09:36:55.388Z,7.53
2018-10-03T09:39:27.371Z,8.30
2018-10-03T09:41:59.587Z,8.90
2018-10-03T09:44:31.440Z,55.30
2018-10-03T09:47:03.494Z,8.83
2018-10-03T09:49:35.682Z,7.87
2018-10-03T09:52:07.536Z,7.13
2018-10-03T09:54:39.559Z,8.17
2018-10-03T09:57:12.771Z,7.27
2018-10-03T09:59:44.868Z,9.00
2018-10-03T10:02:16.872Z,10.07
2018-10-03T10:04:49.049Z,9.17
2018-10-03T10:07:21.345Z,9.27
2018-10-03T10:09:53.255Z,9.30
2018-10-03T10:12:25.986Z,9.80
2018-10-03T10:14:58.588Z,9.73
2018-10-03T10:17:30.963Z,8.30
2018-10-03T10:20:03.351Z,8.40
2018-10-03T10:22:36.572Z,9.03
2018-10-03T10:27:56.195Z,8.63
2018-10-03T10:30:28.880Z,12.50
2018-10-03T10:33:01.385Z,8.43
2018-10-03T10:35:33.532Z,11.50
2018-10-03T10:38:05.938Z,10.10
2018-10-03T10:40:38.462Z,9.87
2018-10-03T10:43:10.404Z,8.43
2018-10-03T10:45:42.579Z,9.87
2018-10-03T10:48:14.761Z,11.40
2018-10-03T10:50:46.937Z,9.67
2018-10-03T10:53:18.723Z,10.00
2018-10-03T10:55:50.872Z,8.57
2018-10-03T10:58:23.637Z,9.93
2018-10-03T11:00:55.743Z,9.93
2018-10-03T11:03:28.000Z,9.63
2018-10-03T11:06:00.463Z,11.13
2018-10-03T11:08:32.910Z,8.80
2018-10-03T11:11:04.900Z,9.63
2018-10-03T11:13:37.036Z,12.33
2018-10-03T11:16:09.227Z,9.57
2018-10-03T11:18:41.448Z,8.37
2018-10-03T11:21:13.909Z,8.30
2018-10-03T11:23:46.536Z,8.77
2018-10-03T11:26:18.641Z,8.13
2018-10-03T11:28:50.682Z,8.50
2018-10-03T11:31:22.862Z,8.63
2018-10-03T11:33:55.160Z,9.17
2018-10-03T11:36:27.489Z,10.27
2018-10-03T11:38:59.559Z,10.67
2018-10-03T11:41:31.676Z,12.23
2018-10-03T11:44:04.640Z,8.50
2018-10-03T11:46:36.689Z,8.30
2018-10-03T11:49:08.903Z,8.40
2018-10-03T11:51:41.569Z,7.63
2018-10-03T11:54:13.812Z,7.27
2018-10-03T11:56:46.007Z,8.43
2018-10-03T11:59:18.301Z,7.50
2018-10-03T12:01:50.712Z,8.40
2018-10-03T12:04:22.826Z,8.03
2018-10-03T12:06:54.995Z,7.83
2018-10-03T12:09:27.573Z,7.90
2018-10-03T12:11:59.809Z,8.87
2018-10-03T12:14:31.820Z,7.80
2018-10-03T12:17:04.071Z,8.47
2018-10-03T12:19:36.428Z,8.50
2018-10-03T12:22:08.611Z,7.17
2018-10-03T12:24:40.820Z,7.50
2018-10-03T12:27:13.094Z,7.97
2018-10-03T12:29:45.417Z,7.17
2018-10-03T12:32:18.328Z,7.40
2018-10-03T12:34:51.284Z,9.97
2018-10-03T12:37:23.774Z,8.60
2018-10-03T12:39:56.262Z,8.00
2018-10-03T12:42:29.152Z,7.13
2018-10-03T12:45:01.435Z,11.07
2018-10-03T12:47:33.476Z,8.27
2018-10-03T12:50:05.710Z,7.57
2018-10-03T12:52:38.585Z,9.20
2018-10-03T12:55:10.751Z,10.30
2018-10-03T12:57:43.145Z,10.50
2018-10-03T13:00:15.144Z,8.40
2018-10-03T13:02:47.277Z,8.83
2018-10-03T13:05:19.128Z,12.17
2018-10-03T13:07:51.165Z,10.87
2018-10-03T13:10:23.211Z,10.50
2018-10-03T13:12:55.337Z,7.17
2018-10-03T13:15:27.547Z,8.53
2018-10-03T13:17:59.923Z,8.87
2018-10-03T13:20:32.372Z,9.20
2018-10-03T13:23:04.715Z,7.37
2018-10-03T13:25:36.834Z,7.30
2018-10-03T13:28:08.715Z,7.83
2018-10-03T13:30:40.915Z,8.57
2018-10-03T13:33:12.980Z,8.17
2018-10-03T13:35:44.985Z,10.03
2018-10-03T13:38:17.053Z,9.97
2018-10-03T13:40:49.014Z,9.37
2018-10-03T13:43:22.850Z,7.60
2018-10-03T13:45:54.727Z,11.77
2018-10-03T13:48:26.868Z,9.70
2018-10-03T13:50:59.024Z,8.33
2018-10-03T13:53:30.765Z,12.53
2018-10-03T13:56:03.367Z,12.20
2018-10-03T13:58:36.289Z,9.60
2018-10-03T14:01:08.372Z,8.93
2018-10-03T14:03:40.891Z,6.67
2018-10-03T14:06:13.198Z,8.27
2018-10-03T14:08:45.783Z,7.33
2018-10-03T14:11:17.812Z,9.73
2018-10-03T14:13:49.980Z,7.43
2018-10-03T14:16:22.175Z,7.73
2018-10-03T14:18:54.527Z,14.90
2018-10-03T14:21:27.984Z,8.53
2018-10-03T14:24:00.595Z,8.50
2018-10-03T14:26:32.829Z,9.17
2018-10-03T14:29:04.919Z,6.90
2018-10-03T14:31:37.160Z,5.93
2018-10-03T14:34:09.640Z,6.10
2018-10-03T14:36:41.998Z,7.33
2018-10-03T14:39:14.163Z,7.10
2018-10-03T14:41:46.647Z,9.10
2018-10-03T14:44:18.968Z,9.23
2018-10-03T14:46:51.199Z,6.80
2018-10-03T14:49:23.400Z,5.90
2018-10-03T14:51:55.703Z,7.23
2018-10-03T14:54:27.985Z,7.90
2018-10-03T14:57:00.184Z,6.70
2018-10-03T14:59:32.464Z,6.67
2018-10-03T15:02:04.830Z,7.07
2018-10-03T15:04:37.496Z,9.83
2018-10-03T15:07:09.537Z,7.53
2018-10-03T15:09:41.651Z,7.17
2018-10-03T15:12:13.745Z,7.63
2018-10-03T15:14:45.757Z,6.17
2018-10-03T15:17:17.974Z,8.97
2018-10-03T15:19:51.089Z,8.00
2018-10-03T15:22:23.184Z,6.57
2018-10-03T15:24:55.406Z,8.60
2018-10-03T15:27:27.865Z,7.57
2018-10-03T15:30:00.086Z,5.93
2018-10-03T15:32:32.053Z,7.00
2018-10-03T15:35:05.083Z,6.27
2018-10-03T15:37:37.297Z,6.80
2018-10-03T15:40:09.457Z,7.17
2018-10-03T15:42:41.484Z,6.07
2018-10-03T15:45:13.187Z,8.67
2018-10-03T15:47:45.507Z,11.47
2018-10-03T15:50:17.760Z,6.70
2018-10-03T15:52:51.065Z,6.80
2018-10-03T15:55:23.457Z,7.37
2018-10-03T15:57:56.107Z,7.77
2018-10-03T16:00:28.123Z,6.93
2018-10-03T16:03:00.724Z,6.00
2018-10-03T16:05:33.788Z,6.63
2018-10-03T16:08:06.199Z,6.97
2018-10-03T16:10:38.597Z,9.70
2018-10-03T16:13:11.064Z,6.87
2018-10-03T16:15:43.240Z,7.67
2018-10-03T16:18:15.649Z,8.53
2018-10-03T16:20:48.253Z,7.10
2018-10-03T16:23:20.544Z,10.27
2018-10-03T16:25:52.412Z,7.27
2018-10-03T16:28:24.690Z,8.37
2018-10-03T16:30:56.879Z,7.00
2018-10-03T16:33:29.274Z,9.03
2018-10-03T16:36:01.617Z,6.53
2018-10-03T16:38:34.731Z,10.93
2018-10-03T16:41:07.343Z,9.93
2018-10-03T16:43:39.658Z,10.70
2018-10-03T16:46:12.432Z,10.03
2018-10-03T16:48:45.604Z,8.33
2018-10-03T16:51:17.705Z,6.93
2018-10-03T16:53:49.844Z,10.57
2018-10-03T16:56:21.675Z,28.80
2018-10-03T16:58:53.614Z,9.57
2018-10-03T17:01:25.680Z,7.90
2018-10-03T17:03:57.924Z,8.63
2018-10-03T17:06:31.009Z,7.93
2018-10-03T17:09:03.303Z,6.80
2018-10-03T17:11:35.741Z,7.50
2018-10-03T17:14:29.420Z,8.30
2018-10-03T17:17:02.375Z,9.97
2018-10-03T17:19:35.010Z,9.97
2018-10-03T17:22:07.483Z,10.67
2018-10-03T17:24:40.307Z,9.03
2018-10-03T17:27:12.738Z,7.50
2018-10-03T17:29:45.184Z,9.33
2018-10-03T17:32:17.854Z,9.40
2018-10-03T17:34:50.472Z,10.57
2018-10-03T17:37:22.783Z,8.40
2018-10-03T17:39:56.896Z,11.97
2018-10-03T17:42:29.583Z,16.10
2018-10-03T17:45:03.012Z,12.10
2018-10-03T17:47:35.463Z,10.17
2018-10-03T17:50:07.384Z,10.63
2018-10-03T17:52:39.427Z,18.33
2018-10-03T17:55:11.600Z,10.93
2018-10-03T17:57:44.065Z,10.30
2018-10-03T18:00:16.210Z,11.63
2018-10-03T18:02:48.730Z,12.03
2018-10-03T18:05:21.397Z,8.63
2018-10-03T18:07:54.130Z,14.97
2018-10-03T18:10:27.079Z,14.83
2018-10-03T18:12:59.536Z,16.13
2018-10-03T18:15:33.995Z,15.17
2018-10-03T18:18:06.722Z,12.90
2018-10-03T18:20:40.053Z,13.17
2018-10-03T18:23:13.078Z,11.10
2018-10-03T18:25:45.744Z,10.70
2018-10-03T18:28:18.269Z,8.77
2018-10-03T18:30:50.413Z,8.70
2018-10-03T18:33:25.606Z,9.63
2018-10-03T18:35:59.389Z,6.73
2018-10-03T18:38:31.653Z,11.33
2018-10-03T18:41:04.611Z,10.30
2018-10-03T18:43:38.434Z,7.90
2018-10-03T18:46:10.861Z,8.40
2018-10-03T18:48:44.162Z,8.17
2018-10-03T18:51:16.523Z,8.63
2018-10-03T18:53:49.032Z,7.33
2018-10-03T18:56:21.961Z,7.87
2018-10-03T18:58:54.241Z,9.87
2018-10-03T19:01:26.535Z,10.27
2018-10-03T19:03:58.977Z,11.10
2018-10-03T19:06:31.874Z,9.40
2018-10-03T19:09:05.729Z,8.83
2018-10-03T19:11:38.448Z,9.90
2018-10-03T19:14:10.677Z,13.67
2018-10-03T19:16:43.927Z,14.30
2018-10-03T19:19:16.722Z,11.80
2018-10-03T19:21:49.556Z,11.00
2018-10-03T19:24:21.521Z,10.80
2018-10-03T19:26:53.854Z,12.87
2018-10-03T19:29:26.691Z,10.67
2018-10-03T19:31:59.385Z,10.43
2018-10-03T19:34:31.855Z,10.10
2018-10-03T19:37:04.557Z,9.70
2018-10-03T19:39:37.020Z,13.73
2018-10-03T19:42:09.590Z,11.00
2018-10-03T19:44:43.220Z,11.03
2018-10-03T19:47:15.363Z,9.17
2018-10-03T19:49:48.482Z,8.43
2018-10-03T19:52:20.891Z,9.57
2018-10-03T19:54:53.252Z,9.40
2018-10-03T19:57:25.091Z,9.13
2018-10-03T19:59:56.967Z,12.47
2018-10-03T20:02:29.094Z,8.03
2018-10-03T20:05:01.442Z,8.83
2018-10-03T20:07:34.110Z,9.70
2018-10-03T20:10:06.610Z,8.80
2018-10-03T20:12:38.837Z,9.47
2018-10-03T20:15:12.171Z,13.03
2018-10-03T20:17:44.438Z,11.57
2018-10-03T20:20:17.055Z,8.23
2018-10-03T20:22:49.238Z,7.47
2018-10-03T20:25:21.295Z,7.23
2018-10-03T20:27:53.369Z,10.27
2018-10-03T20:30:25.179Z,8.93
2018-10-03T20:32:57.690Z,9.17
2018-10-03T20:35:30.028Z,9.67
2018-10-03T20:38:02.036Z,6.90
2018-10-03T20:40:34.003Z,9.37
2018-10-03T20:43:06.044Z,7.87
2018-10-03T20:45:38.030Z,8.23
2018-10-03T20:48:10.269Z,9.30
2018-10-03T20:50:42.515Z,6.37
2018-10-03T20:53:14.686Z,6.37
2018-10-03T20:55:46.883Z,6.23
2018-10-03T20:58:19.222Z,6.03
2018-10-03T21:00:51.490Z,6.10
2018-10-03T21:03:23.630Z,6.43
2018-10-03T21:05:55.561Z,5.50
2018-10-03T21:08:27.626Z,5.33
2018-10-03T21:10:59.662Z,4.90
2018-10-03T21:13:32.198Z,5.70
2018-10-03T21:16:04.338Z,6.17
2018-10-03T21:18:36.499Z,6.30
2018-10-03T21:21:09.567Z,4.60
2018-10-03T21:23:42.530Z,5.50
2018-10-03T21:26:14.857Z,6.90
2018-10-03T21:28:47.133Z,5.37
2018-10-03T21:31:18.923Z,5.03
2018-10-03T21:33:50.574Z,5.27
2018-10-03T21:36:22.873Z,6.73
2018-10-03T21:38:54.840Z,4.93
2018-10-03T21:41:27.062Z,4.37
2018-10-03T21:43:58.946Z,6.07
2018-10-03T21:46:30.807Z,4.77
2018-10-03T21:49:02.791Z,4.23
2018-10-03T21:51:34.824Z,4.73
2018-10-03T21:54:07.034Z,4.87
2018-10-03T21:56:38.859Z,4.57
2018-10-03T21:59:10.792Z,4.57
2018-10-03T22:01:43.396Z,7.37
2018-10-03T22:04:16.974Z,5.50
2018-10-03T22:06:48.893Z,6.00
2018-10-03T22:09:21.661Z,7.17
2018-10-03T22:11:53.665Z,5.17
2018-10-03T22:14:25.594Z,4.70
2018-10-03T22:16:57.691Z,5.03
2018-10-03T22:19:29.893Z,5.23
2018-10-03T22:22:02.251Z,4.43
2018-10-03T22:24:34.065Z,5.27
2018-10-03T22:27:06.101Z,3.50
2018-10-03T22:29:38.203Z,3.70
2018-10-03T22:32:11.211Z,4.87
2018-10-03T22:34:43.189Z,4.67
2018-10-03T22:37:15.013Z,4.50
2018-10-03T22:39:46.739Z,4.60
2018-10-03T22:42:18.686Z,4.37
2018-10-03T22:44:50.908Z,3.50
2018-10-03T22:47:22.700Z,4.60
2018-10-03T22:49:54.509Z,5.43
2018-10-03T22:52:26.396Z,4.80
2018-10-03T22:54:58.781Z,5.37
2018-10-03T22:57:30.478Z,4.03
2018-10-03T23:00:02.439Z,4.87
2018-10-03T23:02:34.115Z,6.80
2018-10-03T23:05:06.505Z,4.77
2018-10-03T23:07:38.417Z,4.97
2018-10-03T23:25:27.944Z,4.33
2018-10-03T23:27:59.949Z,6.73
2018-10-03T23:30:32.459Z,8.07
2018-10-03T23:33:04.725Z,5.43
2018-10-03T23:35:37.216Z,5.03
2018-10-03T23:38:08.984Z,4.53
2018-10-03T23:40:40.629Z,5.90
2018-10-03T23:43:12.947Z,5.80
2018-10-03T23:45:44.980Z,4.77
2018-10-03T23:48:16.856Z,4.53
2018-10-03T23:50:48.850Z,6.30
2018-10-03T23:53:21.315Z,3.43
2018-10-03T23:55:53.128Z,3.87
2018-10-03T23:58:25.165Z,3.77
